Главная страница
METAR-TAF:

METAR-TAF

Аэропорты :

Жилина, Словакия

широта: 49-14N, долгота: 018-36-49E, высота над уровнем моря: 312 м

Текущие метеонаблюдения

Эта сводка был подготовлена 33 минут назад, в 20:30 UTC
Ветер 2 Узел от восточный
Температура 18°C
Влажность 88%
Давление 1017 hPa
Видимость 10 км и более
Нет облачности ниже 1500 м, и нет кучево-дождевой облачности

METAR: LZZI 202030Z 08002KT CAVOK 18/16 Q1017

Время: 23:03 (21:03 UTC)

Прогноз

Эта сводка был подготовлена 1 час и 3 минут назад, в 20:00 UTC
Прогноз действительный с 20-го 21 UTC до 21-го 06 UTC
Ветер 2 Узел переменных направлений
Видимость 10 км и более
Нет облачности ниже 1500 м, и нет кучево-дождевой облачности

TAF: LZZI 202000Z 2021/2106 VRB02KT CAVOK

Метеонаблюдения и прогнозы для более 4000 аэропортов (сводки METAR и TAF).

Имеющиеся станции представлены на карте желтыми и красными точками.

Чтобы увидеть название станции, наведите на нее мышь.

Затем щелкните, чтобы увидеть метеонаблюдения и метеопрогнозы.

Управление картой: чтобы увеличить масштаб, щелкните зеленые кнопки с черным крестиком; чтобы уменьшить масштаб, щелкните зеленую кнопку с тире; для просмотра соседних карт щелкайте зеленые стрелки.


METAR-TAF: